sensor_id;sensor_type;location;lat;lon;timestamp;P1;durP1;ratioP1;P2;durP2;ratioP2
73508;SDS011;61750;55.036;73.312;2022-09-25T00:00:20;44.63;;;19.97;;
73508;SDS011;61750;55.036;73.312;2022-09-25T00:02:51;45.97;;;20.23;;
73508;SDS011;61750;55.036;73.312;2022-09-25T00:05:18;49.13;;;20.25;;
73508;SDS011;61750;55.036;73.312;2022-09-25T00:07:49;46.75;;;20.67;;
73508;SDS011;61750;55.036;73.312;2022-09-25T00:10:22;44.42;;;20.77;;
73508;SDS011;61750;55.036;73.312;2022-09-25T00:12:53;49.22;;;21.65;;
73508;SDS011;61750;55.036;73.312;2022-09-25T00:15:20;42.58;;;20.98;;
73508;SDS011;61750;55.036;73.312;2022-09-25T00:17:57;43.17;;;21.88;;
73508;SDS011;61750;55.036;73.312;2022-09-25T00:20:23;42.80;;;20.40;;
73508;SDS011;61750;55.036;73.312;2022-09-25T00:23:00;46.75;;;20.50;;
73508;SDS011;61750;55.036;73.312;2022-09-25T00:25:26;49.25;;;20.85;;
73508;SDS011;61750;55.036;73.312;2022-09-25T00:28:03;48.40;;;22.38;;
73508;SDS011;61750;55.036;73.312;2022-09-25T00:30:38;54.05;;;22.70;;
73508;SDS011;61750;55.036;73.312;2022-09-25T00:33:05;37.85;;;18.02;;
73508;SDS011;61750;55.036;73.312;2022-09-25T00:35:42;41.97;;;17.23;;
73508;SDS011;61750;55.036;73.312;2022-09-25T00:38:08;33.88;;;16.48;;
73508;SDS011;61750;55.036;73.312;2022-09-25T00:40:34;35.60;;;17.30;;
73508;SDS011;61750;55.036;73.312;2022-09-25T00:43:13;35.75;;;16.65;;
73508;SDS011;61750;55.036;73.312;2022-09-25T00:45:40;44.20;;;16.63;;
73508;SDS011;61750;55.036;73.312;2022-09-25T00:48:09;36.42;;;16.95;;
73508;SDS011;61750;55.036;73.312;2022-09-25T00:50:47;41.63;;;17.58;;
73508;SDS011;61750;55.036;73.312;2022-09-25T00:53:19;35.05;;;16.58;;
73508;SDS011;61750;55.036;73.312;2022-09-25T00:55:52;36.92;;;16.83;;
73508;SDS011;61750;55.036;73.312;2022-09-25T00:58:21;32.38;;;17.27;;
73508;SDS011;61750;55.036;73.312;2022-09-25T01:00:49;44.45;;;18.38;;
73508;SDS011;61750;55.036;73.312;2022-09-25T01:03:16;34.45;;;16.80;;
73508;SDS011;61750;55.036;73.312;2022-09-25T01:05:44;33.30;;;16.23;;
73508;SDS011;61750;55.036;73.312;2022-09-25T01:08:13;28.40;;;15.35;;
73508;SDS011;61750;55.036;73.312;2022-09-25T01:10:42;35.90;;;16.58;;
73508;SDS011;61750;55.036;73.312;2022-09-25T01:13:09;42.50;;;16.75;;
73508;SDS011;61750;55.036;73.312;2022-09-25T01:18:14;33.28;;;16.35;;
73508;SDS011;61750;55.036;73.312;2022-09-25T01:24:03;33.15;;;15.85;;
73508;SDS011;61750;55.036;73.312;2022-09-25T01:29:29;38.73;;;16.07;;
73508;SDS011;61750;55.036;73.312;2022-09-25T01:32:49;32.60;;;15.77;;
73508;SDS011;61750;55.036;73.312;2022-09-25T01:35:14;36.88;;;15.90;;
73508;SDS011;61750;55.036;73.312;2022-09-25T01:37:52;36.33;;;16.80;;
73508;SDS011;61750;55.036;73.312;2022-09-25T01:40:33;38.17;;;15.80;;
73508;SDS011;61750;55.036;73.312;2022-09-25T01:43:10;31.95;;;16.00;;
73508;SDS011;61750;55.036;73.312;2022-09-25T01:45:58;32.90;;;15.77;;
73508;SDS011;61750;55.036;73.312;2022-09-25T01:48:27;32.15;;;15.52;;
73508;SDS011;61750;55.036;73.312;2022-09-25T01:51:00;32.80;;;16.05;;
73508;SDS011;61750;55.036;73.312;2022-09-25T01:53:41;37.95;;;18.00;;
73508;SDS011;61750;55.036;73.312;2022-09-25T01:56:19;42.53;;;17.92;;
73508;SDS011;61750;55.036;73.312;2022-09-25T02:02:42;39.50;;;20.15;;
73508;SDS011;61750;55.036;73.312;2022-09-25T02:05:21;40.45;;;18.35;;
73508;SDS011;61750;55.036;73.312;2022-09-25T02:08:11;35.58;;;19.33;;
73508;SDS011;61750;55.036;73.312;2022-09-25T02:10:54;32.63;;;18.70;;
73508;SDS011;61750;55.036;73.312;2022-09-25T02:13:28;39.70;;;18.75;;
73508;SDS011;61750;55.036;73.312;2022-09-25T02:16:06;35.88;;;18.77;;
73508;SDS011;61750;55.036;73.312;2022-09-25T02:18:36;39.05;;;18.48;;
73508;SDS011;61750;55.036;73.312;2022-09-25T02:26:35;31.98;;;17.15;;
73508;SDS011;61750;55.036;73.312;2022-09-25T02:29:03;37.13;;;16.92;;
73508;SDS011;61750;55.036;73.312;2022-09-25T02:31:35;33.55;;;16.95;;
73508;SDS011;61750;55.036;73.312;2022-09-25T02:34:44;40.95;;;16.63;;
73508;SDS011;61750;55.036;73.312;2022-09-25T02:37:16;45.13;;;24.17;;
73508;SDS011;61750;55.036;73.312;2022-09-25T02:39:53;31.63;;;15.20;;
73508;SDS011;61750;55.036;73.312;2022-09-25T02:53:42;27.75;;;13.98;;
73508;SDS011;61750;55.036;73.312;2022-09-25T02:56:25;27.60;;;14.50;;
73508;SDS011;61750;55.036;73.312;2022-09-25T02:59:18;31.37;;;15.41;;
73508;SDS011;61750;55.036;73.312;2022-09-25T03:01:49;33.50;;;15.45;;
73508;SDS011;61750;55.036;73.312;2022-09-25T03:04:45;25.92;;;15.15;;
73508;SDS011;61750;55.036;73.312;2022-09-25T03:07:14;34.53;;;16.60;;
73508;SDS011;61750;55.036;73.312;2022-09-25T03:12:12;36.28;;;17.33;;
73508;SDS011;61750;55.036;73.312;2022-09-25T03:17:11;35.55;;;18.08;;
73508;SDS011;61750;55.036;73.312;2022-09-25T03:22:10;38.72;;;21.25;;
73508;SDS011;61750;55.036;73.312;2022-09-25T03:27:10;42.70;;;22.45;;
73508;SDS011;61750;55.036;73.312;2022-09-25T03:29:36;47.55;;;24.98;;
73508;SDS011;61750;55.036;73.312;2022-09-25T03:32:03;47.03;;;24.48;;
73508;SDS011;61750;55.036;73.312;2022-09-25T03:37:10;45.35;;;24.58;;
73508;SDS011;61750;55.036;73.312;2022-09-25T03:42:10;45.72;;;25.48;;
73508;SDS011;61750;55.036;73.312;2022-09-25T03:47:10;55.00;;;26.17;;
73508;SDS011;61750;55.036;73.312;2022-09-25T03:52:10;54.83;;;25.65;;
73508;SDS011;61750;55.036;73.312;2022-09-25T03:57:16;50.10;;;26.48;;
73508;SDS011;61750;55.036;73.312;2022-09-25T03:59:42;52.80;;;25.02;;
73508;SDS011;61750;55.036;73.312;2022-09-25T04:02:08;43.60;;;21.40;;
73508;SDS011;61750;55.036;73.312;2022-09-25T04:07:10;38.95;;;20.30;;
73508;SDS011;61750;55.036;73.312;2022-09-25T04:12:10;38.30;;;20.60;;
73508;SDS011;61750;55.036;73.312;2022-09-25T04:17:11;38.35;;;20.52;;
73508;SDS011;61750;55.036;73.312;2022-09-25T04:19:48;28.20;;;16.40;;
73508;SDS011;61750;55.036;73.312;2022-09-25T04:22:14;38.28;;;20.80;;
73508;SDS011;61750;55.036;73.312;2022-09-25T04:27:14;40.65;;;21.42;;
73508;SDS011;61750;55.036;73.312;2022-09-25T04:29:45;43.50;;;20.80;;
73508;SDS011;61750;55.036;73.312;2022-09-25T04:32:17;41.08;;;20.77;;
73508;SDS011;61750;55.036;73.312;2022-09-25T04:35:11;39.65;;;19.35;;
73508;SDS011;61750;55.036;73.312;2022-09-25T04:37:37;31.02;;;17.67;;
73508;SDS011;61750;55.036;73.312;2022-09-25T04:40:03;35.53;;;18.65;;
73508;SDS011;61750;55.036;73.312;2022-09-25T04:42:30;36.08;;;18.10;;
73508;SDS011;61750;55.036;73.312;2022-09-25T04:44:56;34.85;;;18.95;;
73508;SDS011;61750;55.036;73.312;2022-09-25T04:49:50;28.10;;;15.20;;
73508;SDS011;61750;55.036;73.312;2022-09-25T04:52:17;37.30;;;17.50;;
73508;SDS011;61750;55.036;73.312;2022-09-25T04:57:15;32.85;;;17.25;;
73508;SDS011;61750;55.036;73.312;2022-09-25T04:59:42;26.17;;;15.07;;
73508;SDS011;61750;55.036;73.312;2022-09-25T05:02:08;29.80;;;14.18;;
73508;SDS011;61750;55.036;73.312;2022-09-25T05:07:16;22.70;;;13.55;;
73508;SDS011;61750;55.036;73.312;2022-09-25T05:12:10;28.20;;;13.68;;
73508;SDS011;61750;55.036;73.312;2022-09-25T05:17:10;22.33;;;12.50;;
73508;SDS011;61750;55.036;73.312;2022-09-25T05:22:10;25.58;;;13.40;;
73508;SDS011;61750;55.036;73.312;2022-09-25T05:27:10;27.75;;;12.85;;
73508;SDS011;61750;55.036;73.312;2022-09-25T05:29:37;22.88;;;12.63;;
73508;SDS011;61750;55.036;73.312;2022-09-25T05:32:05;23.90;;;12.52;;
73508;SDS011;61750;55.036;73.312;2022-09-25T05:37:10;23.90;;;12.13;;
73508;SDS011;61750;55.036;73.312;2022-09-25T05:42:10;21.55;;;11.13;;
73508;SDS011;61750;55.036;73.312;2022-09-25T05:47:10;22.13;;;12.35;;
73508;SDS011;61750;55.036;73.312;2022-09-25T05:52:10;20.80;;;12.05;;
73508;SDS011;61750;55.036;73.312;2022-09-25T05:54:46;22.70;;;4.70;;
73508;SDS011;61750;55.036;73.312;2022-09-25T05:57:12;25.08;;;11.57;;
73508;SDS011;61750;55.036;73.312;2022-09-25T05:59:38;20.20;;;11.20;;
73508;SDS011;61750;55.036;73.312;2022-09-25T06:02:11;16.83;;;10.35;;
73508;SDS011;61750;55.036;73.312;2022-09-25T06:07:10;16.20;;;9.82;;
73508;SDS011;61750;55.036;73.312;2022-09-25T06:12:10;18.00;;;10.02;;
73508;SDS011;61750;55.036;73.312;2022-09-25T06:17:14;20.33;;;11.50;;
73508;SDS011;61750;55.036;73.312;2022-09-25T06:19:47;20.40;;;6.90;;
73508;SDS011;61750;55.036;73.312;2022-09-25T06:27:15;24.02;;;10.75;;
73508;SDS011;61750;55.036;73.312;2022-09-25T06:29:52;23.30;;;11.63;;
73508;SDS011;61750;55.036;73.312;2022-09-25T06:32:18;24.73;;;11.07;;
73508;SDS011;61750;55.036;73.312;2022-09-25T06:34:45;11.20;;;4.50;;
73508;SDS011;61750;55.036;73.312;2022-09-25T06:37:17;19.48;;;10.40;;
73508;SDS011;61750;55.036;73.312;2022-09-25T06:42:11;19.63;;;9.90;;
73508;SDS011;61750;55.036;73.312;2022-09-25T06:47:10;15.00;;;9.13;;
73508;SDS011;61750;55.036;73.312;2022-09-25T06:52:10;17.90;;;8.95;;
73508;SDS011;61750;55.036;73.312;2022-09-25T06:57:10;13.05;;;8.10;;
73508;SDS011;61750;55.036;73.312;2022-09-25T06:59:42;17.10;;;7.88;;
73508;SDS011;61750;55.036;73.312;2022-09-25T07:02:14;14.43;;;8.13;;
73508;SDS011;61750;55.036;73.312;2022-09-25T07:04:58;13.85;;;7.70;;
73508;SDS011;61750;55.036;73.312;2022-09-25T07:07:25;16.35;;;7.93;;
73508;SDS011;61750;55.036;73.312;2022-09-25T07:09:51;17.73;;;7.88;;
73508;SDS011;61750;55.036;73.312;2022-09-25T07:17:21;14.85;;;8.52;;
73508;SDS011;61750;55.036;73.312;2022-09-25T07:19:55;12.82;;;8.38;;
73508;SDS011;61750;55.036;73.312;2022-09-25T07:22:22;17.33;;;8.68;;
73508;SDS011;61750;55.036;73.312;2022-09-25T07:24:51;13.73;;;6.93;;
73508;SDS011;61750;55.036;73.312;2022-09-25T07:27:17;14.32;;;8.00;;
73508;SDS011;61750;55.036;73.312;2022-09-25T07:29:43;17.88;;;8.30;;
73508;SDS011;61750;55.036;73.312;2022-09-25T07:32:09;15.65;;;8.88;;
73508;SDS011;61750;55.036;73.312;2022-09-25T07:37:10;14.70;;;8.45;;
73508;SDS011;61750;55.036;73.312;2022-09-25T07:42:10;18.92;;;7.80;;
73508;SDS011;61750;55.036;73.312;2022-09-25T07:47:20;17.13;;;7.88;;
73508;SDS011;61750;55.036;73.312;2022-09-25T07:49:46;12.90;;;4.75;;
73508;SDS011;61750;55.036;73.312;2022-09-25T07:52:13;20.60;;;7.22;;
73508;SDS011;61750;55.036;73.312;2022-09-25T07:57:20;14.18;;;7.18;;
73508;SDS011;61750;55.036;73.312;2022-09-25T07:59:46;20.00;;;7.80;;
73508;SDS011;61750;55.036;73.312;2022-09-25T08:02:13;13.23;;;7.53;;
73508;SDS011;61750;55.036;73.312;2022-09-25T08:07:10;16.35;;;7.18;;
73508;SDS011;61750;55.036;73.312;2022-09-25T08:12:10;14.20;;;6.63;;
73508;SDS011;61750;55.036;73.312;2022-09-25T08:17:10;14.02;;;6.63;;
73508;SDS011;61750;55.036;73.312;2022-09-25T08:19:47;5.60;;;3.25;;
73508;SDS011;61750;55.036;73.312;2022-09-25T08:22:13;18.27;;;6.82;;
73508;SDS011;61750;55.036;73.312;2022-09-25T08:27:13;15.88;;;6.75;;
73508;SDS011;61750;55.036;73.312;2022-09-25T08:29:40;9.38;;;6.47;;
73508;SDS011;61750;55.036;73.312;2022-09-25T08:32:10;16.85;;;6.63;;
73508;SDS011;61750;55.036;73.312;2022-09-25T08:37:10;18.70;;;7.70;;
73508;SDS011;61750;55.036;73.312;2022-09-25T08:42:15;15.95;;;7.85;;
73508;SDS011;61750;55.036;73.312;2022-09-25T08:44:46;5.60;;;4.20;;
73508;SDS011;61750;55.036;73.312;2022-09-25T08:47:35;15.68;;;8.18;;
73508;SDS011;61750;55.036;73.312;2022-09-25T08:50:30;14.57;;;8.03;;
73508;SDS011;61750;55.036;73.312;2022-09-25T08:53:20;14.88;;;7.93;;
73508;SDS011;61750;55.036;73.312;2022-09-25T08:55:59;16.08;;;7.53;;
73508;SDS011;61750;55.036;73.312;2022-09-25T08:58:40;17.85;;;8.20;;
73508;SDS011;61750;55.036;73.312;2022-09-25T09:07:12;19.38;;;7.13;;
73508;SDS011;61750;55.036;73.312;2022-09-25T09:12:34;18.60;;;8.20;;
73508;SDS011;61750;55.036;73.312;2022-09-25T09:15:14;14.52;;;8.35;;
73508;SDS011;61750;55.036;73.312;2022-09-25T09:17:46;17.17;;;8.20;;
73508;SDS011;61750;55.036;73.312;2022-09-25T09:22:44;14.45;;;8.52;;
73508;SDS011;61750;55.036;73.312;2022-09-25T09:25:25;13.60;;;8.48;;
73508;SDS011;61750;55.036;73.312;2022-09-25T09:36:14;10.60;;;6.80;;
73508;SDS011;61750;55.036;73.312;2022-09-25T09:41:40;11.95;;;5.72;;
73508;SDS011;61750;55.036;73.312;2022-09-25T09:50:42;14.65;;;6.95;;
73508;SDS011;61750;55.036;73.312;2022-09-25T09:53:12;11.90;;;6.55;;
73508;SDS011;61750;55.036;73.312;2022-09-25T09:56:03;10.20;;;6.97;;
73508;SDS011;61750;55.036;73.312;2022-09-25T10:01:18;14.27;;;6.97;;
73508;SDS011;61750;55.036;73.312;2022-09-25T10:03:48;13.25;;;6.72;;
73508;SDS011;61750;55.036;73.312;2022-09-25T10:06:23;10.45;;;6.38;;
73508;SDS011;61750;55.036;73.312;2022-09-25T10:08:58;12.63;;;6.43;;
73508;SDS011;61750;55.036;73.312;2022-09-25T10:11:24;12.65;;;7.32;;
73508;SDS011;61750;55.036;73.312;2022-09-25T10:13:52;13.57;;;6.85;;
73508;SDS011;61750;55.036;73.312;2022-09-25T10:16:21;14.18;;;6.90;;
73508;SDS011;61750;55.036;73.312;2022-09-25T10:21:37;11.02;;;7.05;;
73508;SDS011;61750;55.036;73.312;2022-09-25T10:27:30;12.70;;;7.15;;
73508;SDS011;61750;55.036;73.312;2022-09-25T10:32:42;11.05;;;7.22;;
73508;SDS011;61750;55.036;73.312;2022-09-25T10:35:19;16.92;;;8.30;;
73508;SDS011;61750;55.036;73.312;2022-09-25T10:37:48;16.33;;;8.10;;
73508;SDS011;61750;55.036;73.312;2022-09-25T10:40:22;15.98;;;8.68;;
73508;SDS011;61750;55.036;73.312;2022-09-25T10:45:44;16.05;;;8.95;;
73508;SDS011;61750;55.036;73.312;2022-09-25T10:48:24;24.25;;;9.50;;
73508;SDS011;61750;55.036;73.312;2022-09-25T10:51:22;16.17;;;9.35;;
73508;SDS011;61750;55.036;73.312;2022-09-25T10:53:55;16.92;;;9.93;;
73508;SDS011;61750;55.036;73.312;2022-09-25T10:56:47;14.10;;;9.07;;
73508;SDS011;61750;55.036;73.312;2022-09-25T10:59:18;16.65;;;9.68;;
73508;SDS011;61750;55.036;73.312;2022-09-25T11:01:46;18.77;;;10.05;;
73508;SDS011;61750;55.036;73.312;2022-09-25T11:04:44;12.05;;;7.45;;
73508;SDS011;61750;55.036;73.312;2022-09-25T11:07:15;16.23;;;9.55;;
73508;SDS011;61750;55.036;73.312;2022-09-25T11:09:53;19.25;;;9.13;;
73508;SDS011;61750;55.036;73.312;2022-09-25T11:12:23;12.93;;;8.32;;
73508;SDS011;61750;55.036;73.312;2022-09-25T11:14:59;11.70;;;7.93;;
73508;SDS011;61750;55.036;73.312;2022-09-25T11:17:40;18.30;;;8.30;;
73508;SDS011;61750;55.036;73.312;2022-09-25T11:22:50;12.88;;;8.38;;
73508;SDS011;61750;55.036;73.312;2022-09-25T11:25:29;18.92;;;10.18;;
73508;SDS011;61750;55.036;73.312;2022-09-25T11:30:54;21.05;;;11.60;;
73508;SDS011;61750;55.036;73.312;2022-09-25T11:33:41;21.92;;;11.77;;
73508;SDS011;61750;55.036;73.312;2022-09-25T11:36:27;23.85;;;12.32;;
73508;SDS011;61750;55.036;73.312;2022-09-25T11:39:01;20.10;;;12.52;;
73508;SDS011;61750;55.036;73.312;2022-09-25T11:42:04;18.02;;;12.55;;
73508;SDS011;61750;55.036;73.312;2022-09-25T11:49:57;21.98;;;11.82;;
73508;SDS011;61750;55.036;73.312;2022-09-25T11:52:34;22.58;;;12.57;;
73508;SDS011;61750;55.036;73.312;2022-09-25T12:03:59;20.92;;;12.05;;
73508;SDS011;61750;55.036;73.312;2022-09-25T12:12:28;20.20;;;11.38;;
73508;SDS011;61750;55.036;73.312;2022-09-25T12:18:10;17.92;;;10.90;;
73508;SDS011;61750;55.036;73.312;2022-09-25T12:37:42;17.48;;;10.60;;
73508;SDS011;61750;55.036;73.312;2022-09-25T12:40:22;16.13;;;10.90;;
73508;SDS011;61750;55.036;73.312;2022-09-25T12:43:06;16.77;;;11.68;;
73508;SDS011;61750;55.036;73.312;2022-09-25T12:45:43;20.58;;;11.63;;
73508;SDS011;61750;55.036;73.312;2022-09-25T12:48:23;20.63;;;11.73;;
73508;SDS011;61750;55.036;73.312;2022-09-25T12:51:09;15.93;;;10.43;;
73508;SDS011;61750;55.036;73.312;2022-09-25T12:53:39;20.85;;;10.65;;
73508;SDS011;61750;55.036;73.312;2022-09-25T13:01:44;18.67;;;8.95;;
73508;SDS011;61750;55.036;73.312;2022-09-25T13:07:33;17.70;;;9.18;;
73508;SDS011;61750;55.036;73.312;2022-09-25T13:10:08;19.07;;;10.07;;
73508;SDS011;61750;55.036;73.312;2022-09-25T13:12:59;19.23;;;10.77;;
73508;SDS011;61750;55.036;73.312;2022-09-25T13:15:30;16.67;;;10.18;;
73508;SDS011;61750;55.036;73.312;2022-09-25T13:17:58;20.60;;;10.13;;
73508;SDS011;61750;55.036;73.312;2022-09-25T13:23:06;15.48;;;10.15;;
73508;SDS011;61750;55.036;73.312;2022-09-25T13:25:48;17.20;;;10.50;;
73508;SDS011;61750;55.036;73.312;2022-09-25T13:28:26;18.33;;;10.70;;
73508;SDS011;61750;55.036;73.312;2022-09-25T13:31:05;15.40;;;9.70;;
73508;SDS011;61750;55.036;73.312;2022-09-25T13:38:50;17.52;;;9.75;;
73508;SDS011;61750;55.036;73.312;2022-09-25T13:41:55;16.27;;;9.50;;
73508;SDS011;61750;55.036;73.312;2022-09-25T14:00:25;15.90;;;7.95;;
73508;SDS011;61750;55.036;73.312;2022-09-25T14:03:00;17.40;;;7.43;;
73508;SDS011;61750;55.036;73.312;2022-09-25T14:05:28;14.27;;;7.10;;
73508;SDS011;61750;55.036;73.312;2022-09-25T14:08:21;15.40;;;6.68;;
73508;SDS011;61750;55.036;73.312;2022-09-25T14:10:49;12.47;;;6.07;;
73508;SDS011;61750;55.036;73.312;2022-09-25T14:13:19;14.02;;;6.22;;
73508;SDS011;61750;55.036;73.312;2022-09-25T14:15:48;11.48;;;6.57;;
73508;SDS011;61750;55.036;73.312;2022-09-25T14:18:39;9.73;;;4.85;;
73508;SDS011;61750;55.036;73.312;2022-09-25T14:23:48;10.55;;;4.68;;
73508;SDS011;61750;55.036;73.312;2022-09-25T14:26:24;9.15;;;4.75;;
73508;SDS011;61750;55.036;73.312;2022-09-25T14:28:52;8.30;;;4.60;;
73508;SDS011;61750;55.036;73.312;2022-09-25T14:34:15;10.07;;;4.70;;
73508;SDS011;61750;55.036;73.312;2022-09-25T14:48:19;7.75;;;4.32;;
73508;SDS011;61750;55.036;73.312;2022-09-25T14:50:56;7.85;;;3.72;;
73508;SDS011;61750;55.036;73.312;2022-09-25T14:53:28;8.57;;;3.53;;
73508;SDS011;61750;55.036;73.312;2022-09-25T14:55:58;8.32;;;3.58;;
73508;SDS011;61750;55.036;73.312;2022-09-25T14:58:32;6.07;;;3.70;;
73508;SDS011;61750;55.036;73.312;2022-09-25T15:01:03;13.93;;;3.85;;
73508;SDS011;61750;55.036;73.312;2022-09-25T15:03:57;5.63;;;3.20;;
73508;SDS011;61750;55.036;73.312;2022-09-25T15:06:37;7.28;;;3.30;;
73508;SDS011;61750;55.036;73.312;2022-09-25T15:09:45;7.53;;;3.30;;
73508;SDS011;61750;55.036;73.312;2022-09-25T15:12:23;6.60;;;3.38;;
73508;SDS011;61750;55.036;73.312;2022-09-25T15:17:45;8.85;;;3.17;;
73508;SDS011;61750;55.036;73.312;2022-09-25T15:20:36;6.32;;;3.10;;
73508;SDS011;61750;55.036;73.312;2022-09-25T15:23:04;5.07;;;3.00;;
73508;SDS011;61750;55.036;73.312;2022-09-25T15:25:34;9.07;;;3.22;;
73508;SDS011;61750;55.036;73.312;2022-09-25T15:28:04;4.53;;;2.88;;
73508;SDS011;61750;55.036;73.312;2022-09-25T15:30:32;7.53;;;3.40;;
73508;SDS011;61750;55.036;73.312;2022-09-25T15:33:00;5.05;;;2.80;;
73508;SDS011;61750;55.036;73.312;2022-09-25T15:35:27;5.00;;;2.75;;
73508;SDS011;61750;55.036;73.312;2022-09-25T15:38:02;4.70;;;3.10;;
73508;SDS011;61750;55.036;73.312;2022-09-25T15:40:32;5.18;;;3.35;;
73508;SDS011;61750;55.036;73.312;2022-09-25T15:42:59;4.47;;;3.03;;
73508;SDS011;61750;55.036;73.312;2022-09-25T15:45:48;5.37;;;3.60;;
73508;SDS011;61750;55.036;73.312;2022-09-25T15:48:27;6.15;;;3.83;;
73508;SDS011;61750;55.036;73.312;2022-09-25T15:50:56;5.53;;;3.20;;
73508;SDS011;61750;55.036;73.312;2022-09-25T15:53:26;6.35;;;3.38;;
73508;SDS011;61750;55.036;73.312;2022-09-25T15:58:45;5.85;;;3.80;;
73508;SDS011;61750;55.036;73.312;2022-09-25T16:04:01;7.55;;;3.88;;
73508;SDS011;61750;55.036;73.312;2022-09-25T16:06:59;5.70;;;3.67;;
73508;SDS011;61750;55.036;73.312;2022-09-25T16:09:48;6.35;;;3.35;;
73508;SDS011;61750;55.036;73.312;2022-09-25T16:21:23;6.28;;;4.10;;
73508;SDS011;61750;55.036;73.312;2022-09-25T16:23:49;6.80;;;4.05;;
73508;SDS011;61750;55.036;73.312;2022-09-25T16:26:23;4.72;;;3.40;;
73508;SDS011;61750;55.036;73.312;2022-09-25T16:29:35;6.40;;;3.80;;
73508;SDS011;61750;55.036;73.312;2022-09-25T16:31:46;6.35;;;4.00;;
73508;SDS011;61750;55.036;73.312;2022-09-25T16:37:26;6.10;;;3.75;;
73508;SDS011;61750;55.036;73.312;2022-09-25T16:40:19;7.15;;;3.63;;
73508;SDS011;61750;55.036;73.312;2022-09-25T16:42:49;5.70;;;3.70;;
73508;SDS011;61750;55.036;73.312;2022-09-25T16:45:19;5.07;;;3.40;;
73508;SDS011;61750;55.036;73.312;2022-09-25T16:47:52;6.10;;;3.72;;
73508;SDS011;61750;55.036;73.312;2022-09-25T16:50:19;6.22;;;3.53;;
73508;SDS011;61750;55.036;73.312;2022-09-25T16:52:51;8.05;;;4.15;;
73508;SDS011;61750;55.036;73.312;2022-09-25T16:55:25;5.90;;;3.75;;
73508;SDS011;61750;55.036;73.312;2022-09-25T16:57:54;7.68;;;3.50;;
73508;SDS011;61750;55.036;73.312;2022-09-25T17:00:25;6.88;;;3.40;;
73508;SDS011;61750;55.036;73.312;2022-09-25T17:02:52;5.47;;;3.63;;
73508;SDS011;61750;55.036;73.312;2022-09-25T17:05:20;6.55;;;3.75;;
73508;SDS011;61750;55.036;73.312;2022-09-25T17:07:52;5.28;;;3.45;;
73508;SDS011;61750;55.036;73.312;2022-09-25T17:10:28;5.57;;;3.67;;
73508;SDS011;61750;55.036;73.312;2022-09-25T17:12:57;7.30;;;4.07;;
73508;SDS011;61750;55.036;73.312;2022-09-25T17:15:26;5.45;;;3.50;;
73508;SDS011;61750;55.036;73.312;2022-09-25T17:17:57;5.72;;;3.67;;
73508;SDS011;61750;55.036;73.312;2022-09-25T17:20:30;5.70;;;3.72;;
73508;SDS011;61750;55.036;73.312;2022-09-25T17:22:56;7.03;;;4.15;;
73508;SDS011;61750;55.036;73.312;2022-09-25T17:25:35;6.55;;;4.00;;
73508;SDS011;61750;55.036;73.312;2022-09-25T17:28:08;6.72;;;3.83;;
73508;SDS011;61750;55.036;73.312;2022-09-25T17:30:40;5.07;;;3.63;;
73508;SDS011;61750;55.036;73.312;2022-09-25T17:33:15;6.00;;;3.72;;
73508;SDS011;61750;55.036;73.312;2022-09-25T17:35:52;6.13;;;3.55;;
73508;SDS011;61750;55.036;73.312;2022-09-25T17:38:24;5.75;;;3.75;;
73508;SDS011;61750;55.036;73.312;2022-09-25T17:40:52;6.18;;;3.33;;
73508;SDS011;61750;55.036;73.312;2022-09-25T17:43:30;10.40;;;3.75;;
73508;SDS011;61750;55.036;73.312;2022-09-25T17:45:57;5.97;;;3.65;;
73508;SDS011;61750;55.036;73.312;2022-09-25T17:48:25;8.48;;;3.83;;
73508;SDS011;61750;55.036;73.312;2022-09-25T17:50:58;6.82;;;3.50;;
73508;SDS011;61750;55.036;73.312;2022-09-25T17:53:29;5.20;;;3.33;;
73508;SDS011;61750;55.036;73.312;2022-09-25T17:55:57;5.03;;;3.03;;
73508;SDS011;61750;55.036;73.312;2022-09-25T17:58:25;5.43;;;3.40;;
73508;SDS011;61750;55.036;73.312;2022-09-25T18:00:55;5.85;;;3.30;;
73508;SDS011;61750;55.036;73.312;2022-09-25T18:03:28;4.93;;;3.35;;
73508;SDS011;61750;55.036;73.312;2022-09-25T18:06:00;7.63;;;3.60;;
73508;SDS011;61750;55.036;73.312;2022-09-25T18:08:26;5.00;;;3.30;;
73508;SDS011;61750;55.036;73.312;2022-09-25T18:10:53;5.97;;;3.60;;
73508;SDS011;61750;55.036;73.312;2022-09-25T18:13:20;5.63;;;3.53;;
73508;SDS011;61750;55.036;73.312;2022-09-25T18:15:52;5.23;;;3.40;;
73508;SDS011;61750;55.036;73.312;2022-09-25T18:18:20;6.97;;;3.72;;
73508;SDS011;61750;55.036;73.312;2022-09-25T18:20:47;6.28;;;3.40;;
73508;SDS011;61750;55.036;73.312;2022-09-25T18:23:59;7.13;;;3.90;;
73508;SDS011;61750;55.036;73.312;2022-09-25T18:26:30;6.60;;;3.35;;
73508;SDS011;61750;55.036;73.312;2022-09-25T18:28:56;5.97;;;3.72;;
73508;SDS011;61750;55.036;73.312;2022-09-25T18:31:22;7.20;;;3.30;;
73508;SDS011;61750;55.036;73.312;2022-09-25T18:33:48;5.85;;;3.22;;
73508;SDS011;61750;55.036;73.312;2022-09-25T18:36:19;5.95;;;3.67;;
73508;SDS011;61750;55.036;73.312;2022-09-25T18:38:46;5.55;;;3.33;;
73508;SDS011;61750;55.036;73.312;2022-09-25T18:41:13;8.00;;;3.67;;
73508;SDS011;61750;55.036;73.312;2022-09-25T18:43:39;4.28;;;2.92;;
73508;SDS011;61750;55.036;73.312;2022-09-25T18:46:10;5.32;;;2.95;;
73508;SDS011;61750;55.036;73.312;2022-09-25T18:48:36;4.15;;;3.00;;
73508;SDS011;61750;55.036;73.312;2022-09-25T18:51:03;4.82;;;2.72;;
73508;SDS011;61750;55.036;73.312;2022-09-25T18:53:35;5.10;;;3.03;;
73508;SDS011;61750;55.036;73.312;2022-09-25T18:56:01;5.18;;;2.70;;
73508;SDS011;61750;55.036;73.312;2022-09-25T18:58:28;4.57;;;2.60;;
73508;SDS011;61750;55.036;73.312;2022-09-25T19:00:59;4.10;;;2.40;;
73508;SDS011;61750;55.036;73.312;2022-09-25T19:03:25;6.70;;;2.80;;
73508;SDS011;61750;55.036;73.312;2022-09-25T19:06:02;4.50;;;2.50;;
73508;SDS011;61750;55.036;73.312;2022-09-25T19:08:29;5.57;;;2.85;;
73508;SDS011;61750;55.036;73.312;2022-09-25T19:10:56;5.45;;;3.00;;
73508;SDS011;61750;55.036;73.312;2022-09-25T19:13:26;4.85;;;3.03;;
73508;SDS011;61750;55.036;73.312;2022-09-25T19:15:58;5.40;;;2.90;;
73508;SDS011;61750;55.036;73.312;2022-09-25T19:18:25;4.63;;;2.72;;
73508;SDS011;61750;55.036;73.312;2022-09-25T19:23:24;4.78;;;2.63;;
73508;SDS011;61750;55.036;73.312;2022-09-25T19:25:51;5.00;;;3.17;;
73508;SDS011;61750;55.036;73.312;2022-09-25T19:28:22;5.78;;;3.00;;
73508;SDS011;61750;55.036;73.312;2022-09-25T19:30:58;6.55;;;3.55;;
73508;SDS011;61750;55.036;73.312;2022-09-25T19:33:30;7.75;;;3.67;;
73508;SDS011;61750;55.036;73.312;2022-09-25T19:36:00;6.40;;;3.35;;
73508;SDS011;61750;55.036;73.312;2022-09-25T19:38:32;6.35;;;3.20;;
73508;SDS011;61750;55.036;73.312;2022-09-25T19:40:59;6.25;;;3.78;;
73508;SDS011;61750;55.036;73.312;2022-09-25T19:43:26;5.75;;;3.10;;
73508;SDS011;61750;55.036;73.312;2022-09-25T19:45:53;7.18;;;3.25;;
73508;SDS011;61750;55.036;73.312;2022-09-25T19:48:21;4.75;;;2.90;;
73508;SDS011;61750;55.036;73.312;2022-09-25T19:50:48;5.20;;;3.08;;
73508;SDS011;61750;55.036;73.312;2022-09-25T19:53:15;7.95;;;3.50;;
73508;SDS011;61750;55.036;73.312;2022-09-25T19:55:44;5.53;;;2.75;;
73508;SDS011;61750;55.036;73.312;2022-09-25T19:58:15;7.40;;;3.38;;